createdAt,value
2022-11-05T00:00:52.145Z,1007.45
2022-11-05T00:01:52.228Z,1007.53
2022-11-05T00:02:52.141Z,1007.50
2022-11-05T00:03:52.152Z,1007.52
2022-11-05T00:04:52.134Z,1007.57
2022-11-05T00:05:52.084Z,1007.56
2022-11-05T00:06:52.135Z,1007.58
2022-11-05T00:07:52.064Z,1007.60
2022-11-05T00:08:52.054Z,1007.59
2022-11-05T00:09:52.044Z,1007.53
2022-11-05T00:10:52.068Z,1007.51
2022-11-05T00:11:52.014Z,1007.56
2022-11-05T00:12:52.023Z,1007.52
2022-11-05T00:13:51.994Z,1007.57
2022-11-05T00:14:52.023Z,1007.55
2022-11-05T00:15:52.020Z,1007.57
2022-11-05T00:16:52.038Z,1007.60
2022-11-05T00:17:51.973Z,1007.62
2022-11-05T00:18:51.944Z,1007.62
2022-11-05T00:19:51.953Z,1007.64
2022-11-05T00:20:51.934Z,1007.64
2022-11-05T00:21:52.014Z,1007.67
2022-11-05T00:22:51.912Z,1007.72
2022-11-05T00:23:51.892Z,1007.69
2022-11-05T00:24:51.903Z,1007.72
2022-11-05T00:25:51.871Z,1007.73
2022-11-05T00:26:51.863Z,1007.71
2022-11-05T00:27:51.982Z,1007.74
2022-11-05T00:28:51.844Z,1007.76
2022-11-05T00:29:51.831Z,1007.77
2022-11-05T00:30:51.831Z,1007.79
2022-11-05T00:31:51.802Z,1007.77
2022-11-05T00:32:51.836Z,1007.77
2022-11-05T00:33:51.791Z,1007.79
2022-11-05T00:34:51.981Z,1007.79
2022-11-05T00:35:51.762Z,1007.84
2022-11-05T00:36:51.763Z,1007.80
2022-11-05T00:37:51.984Z,1007.86
2022-11-05T00:38:51.739Z,1007.87
2022-11-05T00:41:01.246Z,1007.93
2022-11-05T00:42:01.331Z,1007.88
2022-11-05T00:43:01.227Z,1007.94
2022-11-05T00:44:01.193Z,1007.98
2022-11-05T00:45:01.205Z,1007.94
2022-11-05T00:46:01.214Z,1007.95
2022-11-05T00:47:01.157Z,1007.96
2022-11-05T00:48:01.156Z,1007.96
2022-11-05T00:49:01.149Z,1007.95
2022-11-05T00:50:01.123Z,1007.94
2022-11-05T00:51:01.132Z,1007.97
2022-11-05T00:52:01.136Z,1007.94
2022-11-05T00:53:01.101Z,1007.94
2022-11-05T00:54:01.107Z,1007.99
2022-11-05T00:55:01.087Z,1008.00
2022-11-05T00:56:01.081Z,1008.00
2022-11-05T00:57:04.600Z,1008.02
2022-11-05T00:58:01.044Z,1008.02
2022-11-05T00:59:01.023Z,1008.04
2022-11-05T01:00:01.074Z,1008.01
2022-11-05T01:01:01.014Z,1008.00
2022-11-05T01:02:01.105Z,1008.05
2022-11-05T01:03:01.010Z,1008.06
2022-11-05T01:04:01.014Z,1008.05
2022-11-05T01:05:00.963Z,1008.09
2022-11-05T01:06:00.997Z,1008.08
2022-11-05T01:07:00.948Z,1008.08
2022-11-05T01:08:01.074Z,1008.08
2022-11-05T01:09:01.065Z,1008.08
2022-11-05T01:10:00.912Z,1008.09
2022-11-05T01:11:00.894Z,1008.10
2022-11-05T01:12:00.891Z,1008.09
2022-11-05T01:13:00.882Z,1008.12
2022-11-05T01:14:00.876Z,1008.08
2022-11-05T01:15:00.883Z,1008.10
2022-11-05T01:16:00.851Z,1008.07
2022-11-05T01:17:00.853Z,1008.04
2022-11-05T01:18:00.833Z,1008.03
2022-11-05T01:19:00.823Z,1008.02
2022-11-05T01:20:00.841Z,1008.04
2022-11-05T01:21:00.791Z,1008.04
2022-11-05T01:22:00.793Z,1008.05
2022-11-05T01:23:00.771Z,1008.05
2022-11-05T01:24:00.774Z,1008.10
2022-11-05T01:25:00.790Z,1008.13
2022-11-05T01:26:00.771Z,1008.11
2022-11-05T01:27:00.736Z,1008.19
2022-11-05T01:28:00.727Z,1008.06
2022-11-05T01:29:00.857Z,1008.07
2022-11-05T01:30:00.704Z,1008.12
2022-11-05T01:31:00.724Z,1008.11
2022-11-05T01:32:00.684Z,1008.13
2022-11-05T01:33:00.663Z,1008.15
2022-11-05T01:34:00.662Z,1008.12
2022-11-05T01:35:00.641Z,1008.13
2022-11-05T01:36:00.643Z,1008.15
2022-11-05T01:37:00.649Z,1008.16
2022-11-05T01:38:00.616Z,1008.15
2022-11-05T01:39:00.656Z,1008.22
2022-11-05T01:40:00.646Z,1008.24
2022-11-05T01:41:00.632Z,1008.18
2022-11-05T01:42:00.579Z,1008.19
2022-11-05T01:43:00.567Z,1008.21
2022-11-05T01:44:00.564Z,1008.23
2022-11-05T01:45:00.551Z,1008.20
2022-11-05T01:46:00.530Z,1008.22
2022-11-05T01:47:00.552Z,1008.22
2022-11-05T01:48:00.511Z,1008.20
2022-11-05T01:49:03.331Z,1008.23
2022-11-05T01:50:00.488Z,1008.24
2022-11-05T01:51:00.490Z,1008.21
2022-11-05T01:52:00.484Z,1008.22
2022-11-05T01:53:00.480Z,1008.22
2022-11-05T01:54:00.469Z,1008.18
2022-11-05T01:55:00.440Z,1008.19
2022-11-05T01:56:00.457Z,1008.24
2022-11-05T01:57:00.427Z,1008.25
2022-11-05T01:58:00.425Z,1008.25
2022-11-05T01:59:00.389Z,1008.30
2022-11-05T02:00:00.396Z,1008.23
2022-11-05T02:01:00.366Z,1008.24
2022-11-05T02:02:00.569Z,1008.18
2022-11-05T02:03:00.420Z,1008.27
2022-11-05T02:04:00.384Z,1008.25
2022-11-05T02:05:00.336Z,1008.24
2022-11-05T02:06:00.317Z,1008.26
2022-11-05T02:07:00.339Z,1008.31
2022-11-05T02:08:00.297Z,1008.30
2022-11-05T02:09:00.278Z,1008.31
2022-11-05T02:10:00.307Z,1008.33
2022-11-05T02:11:00.277Z,1008.37
2022-11-05T02:12:00.257Z,1008.34
2022-11-05T02:13:03.758Z,1008.35
2022-11-05T02:14:00.241Z,1008.35
2022-11-05T02:15:00.227Z,1008.33
2022-11-05T02:16:00.218Z,1008.40
2022-11-05T02:17:00.217Z,1008.43
2022-11-05T02:18:00.224Z,1008.45
2022-11-05T02:19:00.225Z,1008.47
2022-11-05T02:20:00.183Z,1008.49
2022-11-05T02:21:00.166Z,1008.49
2022-11-05T02:22:00.177Z,1008.47
2022-11-05T02:23:00.136Z,1008.43
2022-11-05T02:24:00.167Z,1008.44
2022-11-05T02:25:00.146Z,1008.49
2022-11-05T02:26:00.153Z,1008.48
2022-11-05T02:27:00.139Z,1008.48
2022-11-05T02:28:00.115Z,1008.51
2022-11-05T02:29:00.090Z,1008.48
2022-11-05T02:30:00.184Z,1008.52
2022-11-05T02:31:00.295Z,1008.54
2022-11-05T02:32:00.045Z,1008.55
2022-11-05T02:33:00.056Z,1008.59
2022-11-05T02:34:00.026Z,1008.57
2022-11-05T02:35:00.008Z,1008.64
2022-11-05T02:36:00.005Z,1008.68
2022-11-05T02:37:00.014Z,1008.67
2022-11-05T02:38:00.083Z,1008.67
2022-11-05T02:38:59.998Z,1008.67
2022-11-05T02:39:59.965Z,1008.66
2022-11-05T02:40:59.975Z,1008.66
2022-11-05T02:42:04.644Z,1008.64
2022-11-05T02:43:00.927Z,1008.66
2022-11-05T02:43:59.930Z,1008.66
2022-11-05T02:44:59.924Z,1008.68
2022-11-05T02:45:59.924Z,1008.67
2022-11-05T02:46:59.882Z,1008.70
2022-11-05T02:47:59.951Z,1008.68
2022-11-05T02:48:59.879Z,1008.65
2022-11-05T02:49:59.894Z,1008.63
2022-11-05T02:50:59.844Z,1008.62
2022-11-05T02:51:59.851Z,1008.61
2022-11-05T02:52:59.844Z,1008.58
2022-11-05T02:53:59.906Z,1008.59
2022-11-05T02:54:59.823Z,1008.59
2022-11-05T02:55:59.833Z,1008.58
2022-11-05T02:56:59.772Z,1008.57
2022-11-05T02:57:59.784Z,1008.60
2022-11-05T02:58:59.833Z,1008.58
2022-11-05T02:59:59.772Z,1008.61
2022-11-05T03:00:59.753Z,1008.60
2022-11-05T03:01:59.904Z,1008.59
2022-11-05T03:02:59.806Z,1008.61
2022-11-05T03:03:59.732Z,1008.63
2022-11-05T03:04:59.702Z,1008.60
2022-11-05T03:05:59.672Z,1008.65
2022-11-05T03:06:59.663Z,1008.65
2022-11-05T03:07:59.659Z,1008.60
2022-11-05T03:08:59.684Z,1008.62
2022-11-05T03:09:59.668Z,1008.63
2022-11-05T03:10:59.629Z,1008.60
2022-11-05T03:11:59.613Z,1008.58
2022-11-05T03:12:59.601Z,1008.61
2022-11-05T03:13:59.639Z,1008.65
2022-11-05T03:14:59.581Z,1008.60
2022-11-05T03:15:59.571Z,1008.65
2022-11-05T03:16:59.558Z,1008.63
2022-11-05T03:17:59.553Z,1008.64
2022-11-05T03:18:59.560Z,1008.62
2022-11-05T03:19:59.560Z,1008.64
2022-11-05T03:20:59.563Z,1008.64
2022-11-05T03:21:59.510Z,1008.61
2022-11-05T03:22:59.532Z,1008.61
2022-11-05T03:23:59.541Z,1008.60
2022-11-05T03:24:59.490Z,1008.59
2022-11-05T03:25:59.470Z,1008.58
2022-11-05T03:26:59.480Z,1008.57
2022-11-05T03:27:59.480Z,1008.59
2022-11-05T03:28:59.438Z,1008.64
2022-11-05T03:29:59.422Z,1008.61
2022-11-05T03:30:59.417Z,1008.60
2022-11-05T03:31:59.399Z,1008.61
2022-11-05T03:32:59.393Z,1008.65
2022-11-05T03:33:59.448Z,1008.68
2022-11-05T03:34:59.368Z,1008.64
2022-11-05T03:35:59.362Z,1008.63
2022-11-05T03:36:59.355Z,1008.66
2022-11-05T03:37:59.339Z,1008.70
2022-11-05T03:38:59.318Z,1008.69
2022-11-05T03:39:59.359Z,1008.69
2022-11-05T03:40:59.307Z,1008.70
2022-11-05T03:41:59.298Z,1008.65
2022-11-05T03:42:59.278Z,1008.71
2022-11-05T03:43:59.278Z,1008.79
2022-11-05T03:44:59.287Z,1008.75
2022-11-05T03:45:59.317Z,1008.73
2022-11-05T03:46:59.249Z,1008.77
2022-11-05T03:47:59.237Z,1008.78
2022-11-05T03:48:59.266Z,1008.74
2022-11-05T03:49:59.261Z,1008.77
2022-11-05T03:50:59.265Z,1008.81
2022-11-05T03:51:59.239Z,1008.82
2022-11-05T03:52:59.213Z,1008.81
2022-11-05T03:53:59.168Z,1008.83
2022-11-05T03:54:59.157Z,1008.83
2022-11-05T03:55:59.353Z,1008.89
2022-11-05T03:56:59.127Z,1008.85
2022-11-05T03:57:59.123Z,1008.85
2022-11-05T03:58:59.386Z,1008.87
2022-11-05T03:59:59.124Z,1008.88
2022-11-05T04:00:59.127Z,1008.90
2022-11-05T04:01:59.187Z,1008.90
2022-11-05T04:02:59.144Z,1008.90
2022-11-05T04:03:59.085Z,1008.92
2022-11-05T04:04:59.049Z,1008.96
2022-11-05T04:05:59.061Z,1008.97
2022-11-05T04:06:59.025Z,1009.02
2022-11-05T04:07:59.036Z,1009.00
2022-11-05T04:08:59.008Z,1009.01
2022-11-05T04:09:59.167Z,1009.01
2022-11-05T04:10:58.977Z,1009.03
2022-11-05T04:11:58.973Z,1009.00
2022-11-05T04:12:58.955Z,1009.07
2022-11-05T04:13:58.954Z,1009.07
2022-11-05T04:14:58.965Z,1009.05
2022-11-05T04:15:58.932Z,1009.06
2022-11-05T04:16:58.914Z,1009.04
2022-11-05T04:17:59.011Z,1009.02
2022-11-05T04:18:58.906Z,1009.05
2022-11-05T04:19:58.891Z,1009.07
2022-11-05T04:20:59.728Z,1009.03
2022-11-05T04:21:58.874Z,1009.06
2022-11-05T04:22:58.853Z,1009.06
2022-11-05T04:23:58.844Z,1009.09
2022-11-05T04:24:58.882Z,1009.09
2022-11-05T04:25:58.824Z,1009.08
2022-11-05T04:26:58.824Z,1009.11
2022-11-05T04:27:58.848Z,1009.08
2022-11-05T04:29:02.469Z,1009.11
2022-11-05T04:29:59.795Z,1009.12
2022-11-05T04:30:58.780Z,1009.13
2022-11-05T04:31:58.791Z,1009.16
2022-11-05T04:32:58.756Z,1009.16
2022-11-05T04:33:58.734Z,1009.15
2022-11-05T04:34:58.737Z,1009.19
2022-11-05T04:35:58.795Z,1009.22
2022-11-05T04:36:58.733Z,1009.16
2022-11-05T04:37:58.719Z,1009.21
2022-11-05T04:38:58.731Z,1009.16
2022-11-05T04:39:58.672Z,1009.26
2022-11-05T04:40:58.672Z,1009.27
2022-11-05T04:41:58.682Z,1009.26
2022-11-05T04:42:58.645Z,1009.26
2022-11-05T04:43:58.622Z,1009.25
2022-11-05T04:44:58.667Z,1009.26
2022-11-05T04:45:58.660Z,1009.28
2022-11-05T04:46:58.601Z,1009.29
2022-11-05T04:47:58.662Z,1009.28
2022-11-05T04:48:58.582Z,1009.27
2022-11-05T04:49:58.564Z,1009.28
2022-11-05T04:50:58.572Z,1009.28
2022-11-05T04:51:58.549Z,1009.28
2022-11-05T04:52:58.573Z,1009.22
2022-11-05T04:53:58.550Z,1009.32
2022-11-05T04:54:58.523Z,1009.28
2022-11-05T04:55:58.512Z,1009.30
2022-11-05T04:56:58.498Z,1009.29
2022-11-05T04:57:58.480Z,1009.24
2022-11-05T04:58:58.513Z,1009.26
2022-11-05T04:59:58.458Z,1009.22
2022-11-05T05:00:58.481Z,1009.28
2022-11-05T05:01:58.473Z,1009.22
2022-11-05T05:02:58.430Z,1009.24
2022-11-05T05:03:58.413Z,1009.26
2022-11-05T05:04:58.511Z,1009.25
2022-11-05T05:06:03.518Z,1009.22
2022-11-05T05:06:59.391Z,1009.25
2022-11-05T05:07:58.371Z,1009.20
2022-11-05T05:08:58.361Z,1009.26
2022-11-05T05:09:58.351Z,1009.24
2022-11-05T05:10:58.386Z,1009.27
2022-11-05T05:11:58.337Z,1009.29
2022-11-05T05:12:58.326Z,1009.29
2022-11-05T05:13:58.317Z,1009.27
2022-11-05T05:14:58.299Z,1009.28
2022-11-05T05:15:58.318Z,1009.33
2022-11-05T05:16:58.296Z,1009.31
2022-11-05T05:17:58.268Z,1009.31
2022-11-05T05:18:58.269Z,1009.32
2022-11-05T05:19:58.280Z,1009.35
2022-11-05T05:20:58.240Z,1009.35
2022-11-05T05:21:58.227Z,1009.33
2022-11-05T05:22:58.218Z,1009.38
2022-11-05T05:23:58.205Z,1009.39
2022-11-05T05:24:58.205Z,1009.38
2022-11-05T05:25:58.199Z,1009.38
2022-11-05T05:26:58.178Z,1009.34
2022-11-05T05:27:58.160Z,1009.39
2022-11-05T05:28:58.159Z,1009.37
2022-11-05T05:29:58.155Z,1009.36
2022-11-05T05:30:58.885Z,1009.42
2022-11-05T05:31:58.127Z,1009.41
2022-11-05T05:32:58.107Z,1009.39
2022-11-05T05:33:58.107Z,1009.43
2022-11-05T05:34:58.088Z,1009.43
2022-11-05T05:35:58.112Z,1009.41
2022-11-05T05:36:58.095Z,1009.46
2022-11-05T05:37:58.049Z,1009.44
2022-11-05T05:38:58.047Z,1009.42
2022-11-05T05:39:58.056Z,1009.43
2022-11-05T05:40:58.027Z,1009.44
2022-11-05T05:41:58.023Z,1009.47
2022-11-05T05:42:58.016Z,1009.42
2022-11-05T05:43:58.055Z,1009.41
2022-11-05T05:44:58.005Z,1009.45
2022-11-05T05:45:58.008Z,1009.44
2022-11-05T05:46:57.966Z,1009.45
2022-11-05T05:47:57.965Z,1009.52
2022-11-05T05:48:57.936Z,1009.47
2022-11-05T05:49:57.965Z,1009.49
2022-11-05T05:50:57.947Z,1009.48
2022-11-05T05:51:57.920Z,1009.51
2022-11-05T05:52:57.896Z,1009.53
2022-11-05T05:53:57.884Z,1009.53
2022-11-05T05:54:57.925Z,1009.48
2022-11-05T05:55:57.866Z,1009.56
2022-11-05T05:56:57.866Z,1009.52
2022-11-05T05:57:57.855Z,1009.57
2022-11-05T05:58:57.834Z,1009.59
2022-11-05T05:59:57.822Z,1009.62
2022-11-05T06:00:57.854Z,1009.64
2022-11-05T06:01:57.934Z,1009.60
2022-11-05T06:02:57.838Z,1009.67
2022-11-05T06:04:00.743Z,1009.62
2022-11-05T06:04:57.809Z,1009.67
2022-11-05T06:05:57.774Z,1009.67
2022-11-05T06:06:57.761Z,1009.70
2022-11-05T06:07:57.736Z,1009.69
2022-11-05T06:08:57.743Z,1009.73
2022-11-05T06:09:57.713Z,1009.72
2022-11-05T06:10:57.782Z,1009.79
2022-11-05T06:11:57.704Z,1009.77
2022-11-05T06:12:57.735Z,1009.80
2022-11-05T06:13:57.676Z,1009.80
2022-11-05T06:14:57.693Z,1009.82
2022-11-05T06:15:57.644Z,1009.81
2022-11-05T06:16:57.664Z,1009.83
2022-11-05T06:17:57.633Z,1009.89
2022-11-05T06:18:58.692Z,1009.84
2022-11-05T06:19:57.637Z,1009.85
2022-11-05T06:20:57.599Z,1009.88
2022-11-05T06:21:57.621Z,1009.90
2022-11-05T06:22:57.625Z,1009.90
2022-11-05T06:23:57.563Z,1009.92
2022-11-05T06:24:57.572Z,1009.93
2022-11-05T06:25:57.552Z,1009.99
2022-11-05T06:26:57.711Z,1009.96
2022-11-05T06:27:57.591Z,1009.96
2022-11-05T06:28:57.547Z,1010.00
2022-11-05T06:29:57.502Z,1009.95
2022-11-05T06:30:57.508Z,1009.95
2022-11-05T06:31:57.486Z,1009.96
2022-11-05T06:32:57.483Z,1010.00
2022-11-05T06:33:57.492Z,1010.01
2022-11-05T06:34:57.490Z,1009.98
2022-11-05T06:35:57.441Z,1009.96
2022-11-05T06:36:57.431Z,1010.00
2022-11-05T06:37:57.418Z,1010.01
2022-11-05T06:38:57.429Z,1010.01
2022-11-05T06:40:06.114Z,1010.03
2022-11-05T06:40:57.404Z,1010.01
2022-11-05T06:42:17.154Z,1010.06
2022-11-05T06:42:58.362Z,1010.01
2022-11-05T06:43:57.343Z,1010.04
2022-11-05T06:44:57.345Z,1010.04
2022-11-05T06:45:57.363Z,1010.10
2022-11-05T06:46:57.341Z,1010.06
2022-11-05T06:47:57.329Z,1010.11
2022-11-05T06:48:57.345Z,1010.15
2022-11-05T06:49:57.304Z,1010.14
2022-11-05T06:50:57.290Z,1010.15
2022-11-05T06:51:57.261Z,1010.18
2022-11-05T06:52:57.267Z,1010.21
2022-11-05T06:53:57.234Z,1010.22
2022-11-05T06:55:05.912Z,1010.17
2022-11-05T06:55:57.212Z,1010.21
2022-11-05T06:56:57.272Z,1010.22
2022-11-05T06:57:57.203Z,1010.21
2022-11-05T06:58:57.191Z,1010.22
2022-11-05T07:00:01.339Z,1010.23
2022-11-05T07:00:58.237Z,1010.30
2022-11-05T07:01:57.302Z,1010.30
2022-11-05T07:02:57.172Z,1010.33
2022-11-05T07:03:57.132Z,1010.35
2022-11-05T07:04:57.131Z,1010.33
2022-11-05T07:05:57.111Z,1010.36
2022-11-05T07:06:57.100Z,1010.39
2022-11-05T07:07:57.103Z,1010.42
2022-11-05T07:08:57.112Z,1010.47
2022-11-05T07:09:57.106Z,1010.47
2022-11-05T07:10:57.064Z,1010.42
2022-11-05T07:11:57.051Z,1010.49
2022-11-05T07:12:57.091Z,1010.45
2022-11-05T07:13:57.021Z,1010.49
2022-11-05T07:14:57.021Z,1010.51
2022-11-05T07:15:57.021Z,1010.48
2022-11-05T07:16:57.001Z,1010.50
2022-11-05T07:17:57.006Z,1010.50
2022-11-05T07:18:57.030Z,1010.47
2022-11-05T07:19:56.969Z,1010.48
2022-11-05T07:20:56.959Z,1010.50
2022-11-05T07:21:56.943Z,1010.47
2022-11-05T07:22:56.982Z,1010.51
2022-11-05T07:23:57.021Z,1010.50
2022-11-05T07:24:56.911Z,1010.52
2022-11-05T07:25:56.902Z,1010.49
2022-11-05T07:26:57.019Z,1010.48
2022-11-05T07:27:56.901Z,1010.51
2022-11-05T07:28:56.898Z,1010.49
2022-11-05T07:29:56.860Z,1010.48
2022-11-05T07:30:56.850Z,1010.52
2022-11-05T07:31:56.849Z,1010.49
2022-11-05T07:32:56.877Z,1010.47
2022-11-05T07:33:56.810Z,1010.55
2022-11-05T07:34:56.820Z,1010.50
2022-11-05T07:35:56.791Z,1010.48
2022-11-05T07:36:56.790Z,1010.53
2022-11-05T07:37:56.769Z,1010.50
2022-11-05T07:39:00.294Z,1010.55
2022-11-05T07:39:56.750Z,1010.55
2022-11-05T07:40:56.807Z,1010.58
2022-11-05T07:41:56.741Z,1010.60
2022-11-05T07:42:56.730Z,1010.62
2022-11-05T07:43:56.708Z,1010.63
2022-11-05T07:44:56.738Z,1010.64
2022-11-05T07:45:56.744Z,1010.67
2022-11-05T07:46:56.719Z,1010.66
2022-11-05T07:47:56.678Z,1010.67
2022-11-05T07:48:56.661Z,1010.65
2022-11-05T07:49:56.772Z,1010.67
2022-11-05T07:50:56.697Z,1010.72
2022-11-05T07:51:56.628Z,1010.75
2022-11-05T07:52:59.105Z,1010.71
2022-11-05T07:53:56.626Z,1010.69
2022-11-05T07:54:56.597Z,1010.70
2022-11-05T07:55:56.591Z,1010.72
2022-11-05T07:56:56.575Z,1010.71
2022-11-05T07:57:56.560Z,1010.75
2022-11-05T07:58:56.560Z,1010.76
2022-11-05T07:59:56.598Z,1010.70
2022-11-05T08:00:56.707Z,1010.71
2022-11-05T08:01:56.607Z,1010.68
2022-11-05T08:02:58.625Z,1010.69
2022-11-05T08:03:57.497Z,1010.75
2022-11-05T08:04:56.495Z,1010.72
2022-11-05T08:05:56.524Z,1010.71
2022-11-05T08:06:56.467Z,1010.67
2022-11-05T08:07:56.458Z,1010.70
2022-11-05T08:08:56.454Z,1010.71
2022-11-05T08:09:56.436Z,1010.69
2022-11-05T08:10:56.426Z,1010.71
2022-11-05T08:12:02.467Z,1010.76
2022-11-05T08:12:57.447Z,1010.75
2022-11-05T08:13:56.417Z,1010.77
2022-11-05T08:14:56.394Z,1010.73
2022-11-05T08:15:56.367Z,1010.73
2022-11-05T08:16:56.365Z,1010.73
2022-11-05T08:17:56.487Z,1010.76
2022-11-05T08:18:56.367Z,1010.76
2022-11-05T08:19:56.464Z,1010.75
2022-11-05T08:20:56.335Z,1010.75
2022-11-05T08:21:56.353Z,1010.72
2022-11-05T08:22:56.369Z,1010.75
2022-11-05T08:23:56.600Z,1010.74
2022-11-05T08:24:56.357Z,1010.74
2022-11-05T08:25:56.265Z,1010.76
2022-11-05T08:26:56.274Z,1010.75
2022-11-05T08:27:56.274Z,1010.78
2022-11-05T08:28:56.235Z,1010.78
2022-11-05T08:29:56.275Z,1010.77
2022-11-05T08:30:56.219Z,1010.77
2022-11-05T08:31:56.203Z,1010.77
2022-11-05T08:32:56.195Z,1010.73
2022-11-05T08:34:02.179Z,1010.75
2022-11-05T08:34:57.168Z,1010.79
2022-11-05T08:35:56.165Z,1010.80
2022-11-05T08:36:56.164Z,1010.84
2022-11-05T08:37:56.144Z,1010.84
2022-11-05T08:38:56.170Z,1010.82
2022-11-05T08:39:56.151Z,1010.87
2022-11-05T08:40:56.104Z,1010.88
2022-11-05T08:41:56.134Z,1010.91
2022-11-05T08:42:56.083Z,1010.86
2022-11-05T08:43:56.084Z,1010.85
2022-11-05T08:44:56.090Z,1010.84
2022-11-05T08:45:56.054Z,1010.85
2022-11-05T08:46:56.043Z,1010.89
2022-11-05T08:47:56.053Z,1010.87
2022-11-05T08:48:56.042Z,1010.87
2022-11-05T08:49:56.036Z,1010.86
2022-11-05T08:50:55.992Z,1010.90
2022-11-05T08:51:55.984Z,1010.87
2022-11-05T08:52:56.011Z,1010.88
2022-11-05T08:53:55.973Z,1010.89
2022-11-05T08:54:55.978Z,1010.94
2022-11-05T08:55:55.964Z,1010.95
2022-11-05T08:56:55.940Z,1010.90
2022-11-05T08:57:55.922Z,1010.90
2022-11-05T08:58:55.943Z,1010.95
2022-11-05T08:59:55.901Z,1010.95
2022-11-05T09:00:58.968Z,1010.99
2022-11-05T09:01:56.989Z,1010.98
2022-11-05T09:02:55.901Z,1010.95
2022-11-05T09:03:55.868Z,1010.94
2022-11-05T09:04:55.853Z,1010.98
2022-11-05T09:05:55.841Z,1010.97
2022-11-05T09:06:55.821Z,1010.96
2022-11-05T09:08:00.940Z,1011.04
2022-11-05T09:08:56.842Z,1011.00
2022-11-05T09:09:55.792Z,1010.99
2022-11-05T09:10:55.781Z,1011.05
2022-11-05T09:12:11.744Z,1011.01
2022-11-05T09:12:56.761Z,1011.01
2022-11-05T09:13:55.820Z,1011.03
2022-11-05T09:14:55.795Z,1011.02
2022-11-05T09:15:55.739Z,1011.00
2022-11-05T09:16:55.719Z,1011.10
2022-11-05T09:17:55.735Z,1011.04
2022-11-05T09:18:55.731Z,1011.05
2022-11-05T09:19:55.748Z,1011.03
2022-11-05T09:20:55.681Z,1011.05
2022-11-05T09:21:55.701Z,1011.04
2022-11-05T09:22:55.672Z,1011.10
2022-11-05T09:23:55.647Z,1011.06
2022-11-05T09:24:55.740Z,1011.06
2022-11-05T09:25:55.649Z,1011.03
2022-11-05T09:26:55.609Z,1011.05
2022-11-05T09:27:55.641Z,1011.07
2022-11-05T09:28:55.616Z,1011.06
2022-11-05T09:29:55.589Z,1011.07
2022-11-05T09:30:55.590Z,1011.10
2022-11-05T09:31:55.569Z,1011.10
2022-11-05T09:32:55.558Z,1011.09
2022-11-05T09:33:55.569Z,1011.11
2022-11-05T09:34:55.559Z,1011.04
2022-11-05T09:35:55.519Z,1011.08
2022-11-05T09:36:55.513Z,1011.09
2022-11-05T09:38:00.644Z,1011.03
2022-11-05T09:38:56.520Z,1011.03
2022-11-05T09:39:55.480Z,1011.08
2022-11-05T09:40:55.492Z,1011.06
2022-11-05T09:41:55.449Z,1011.09
2022-11-05T09:42:55.441Z,1011.11
2022-11-05T09:43:55.439Z,1011.14
2022-11-05T09:44:55.491Z,1011.16
2022-11-05T09:45:55.448Z,1011.13
2022-11-05T09:46:55.498Z,1011.17
2022-11-05T09:47:55.392Z,1011.16
2022-11-05T09:48:55.379Z,1011.15
2022-11-05T09:49:55.406Z,1011.20
2022-11-05T09:50:55.347Z,1011.16
2022-11-05T09:51:55.383Z,1011.15
2022-11-05T09:52:55.337Z,1011.19
2022-11-05T09:53:55.377Z,1011.21
2022-11-05T09:54:55.318Z,1011.17
2022-11-05T09:55:55.347Z,1011.12
2022-11-05T09:56:55.297Z,1011.13
2022-11-05T09:57:55.316Z,1011.16
2022-11-05T09:58:55.278Z,1011.14
2022-11-05T09:59:55.257Z,1011.14
2022-11-05T10:00:55.313Z,1011.17
2022-11-05T10:01:55.419Z,1011.14
2022-11-05T10:02:55.267Z,1011.13
2022-11-05T10:03:55.219Z,1011.12
2022-11-05T10:04:55.283Z,1011.10
2022-11-05T10:05:55.332Z,1011.16
2022-11-05T10:06:55.209Z,1011.13
2022-11-05T10:07:55.186Z,1011.18
2022-11-05T10:08:55.178Z,1011.15
2022-11-05T10:09:55.165Z,1011.16
2022-11-05T10:10:55.147Z,1011.16
2022-11-05T10:11:55.216Z,1011.15
2022-11-05T10:12:55.122Z,1011.17
2022-11-05T10:13:55.117Z,1011.15
2022-11-05T10:14:55.098Z,1011.18
2022-11-05T10:15:55.095Z,1011.11
2022-11-05T10:16:55.117Z,1011.14
2022-11-05T10:17:55.087Z,1011.20
2022-11-05T10:18:55.078Z,1011.23
2022-11-05T10:19:55.056Z,1011.16
2022-11-05T10:20:55.053Z,1011.15
2022-11-05T10:22:10.432Z,1011.10
2022-11-05T10:22:56.019Z,1011.15
2022-11-05T10:23:55.007Z,1011.09
2022-11-05T10:24:55.018Z,1011.12
2022-11-05T10:25:55.018Z,1011.06
2022-11-05T10:26:55.033Z,1011.08
2022-11-05T10:27:54.956Z,1011.08
2022-11-05T10:28:54.976Z,1011.16
2022-11-05T10:29:54.936Z,1011.07
2022-11-05T10:30:54.925Z,1011.12
2022-11-05T10:31:54.958Z,1011.08
2022-11-05T10:32:54.915Z,1011.05
2022-11-05T10:33:55.102Z,1011.14
2022-11-05T10:34:54.883Z,1011.07
2022-11-05T10:35:54.875Z,1011.15
2022-11-05T10:36:54.870Z,1011.16
2022-11-05T10:37:55.080Z,1011.10
2022-11-05T10:38:54.838Z,1011.14
2022-11-05T10:39:54.833Z,1011.11
2022-11-05T10:40:54.883Z,1011.17
2022-11-05T10:41:54.804Z,1011.15
2022-11-05T10:42:54.834Z,1011.16
2022-11-05T10:43:56.364Z,1011.15
2022-11-05T10:44:54.904Z,1011.21
2022-11-05T10:45:54.775Z,1011.13
2022-11-05T10:46:54.767Z,1011.20
2022-11-05T10:47:54.744Z,1011.20
2022-11-05T10:48:54.734Z,1011.25
2022-11-05T10:49:54.754Z,1011.20
2022-11-05T10:50:54.722Z,1011.19
2022-11-05T10:51:54.758Z,1011.26
2022-11-05T10:52:54.700Z,1011.20
2022-11-05T10:54:00.379Z,1011.19
2022-11-05T10:54:55.696Z,1011.22
2022-11-05T10:55:54.704Z,1011.18
2022-11-05T10:56:54.658Z,1011.21
2022-11-05T10:57:54.680Z,1011.17
2022-11-05T10:58:54.625Z,1011.19
2022-11-05T10:59:54.625Z,1011.21
2022-11-05T11:00:55.891Z,1011.22
2022-11-05T11:01:54.708Z,1011.23
2022-11-05T11:02:54.595Z,1011.22
2022-11-05T11:03:54.587Z,1011.20
2022-11-05T11:04:54.575Z,1011.16
2022-11-05T11:05:54.562Z,1011.15
2022-11-05T11:06:54.590Z,1011.16
2022-11-05T11:07:54.544Z,1011.14
2022-11-05T11:08:54.514Z,1011.18
2022-11-05T11:09:54.526Z,1011.17
2022-11-05T11:10:54.521Z,1011.19
2022-11-05T11:11:54.536Z,1011.17
2022-11-05T11:12:54.525Z,1011.17
2022-11-05T11:13:54.506Z,1011.19
2022-11-05T11:14:54.456Z,1011.17
2022-11-05T11:15:54.450Z,1011.17
2022-11-05T11:16:54.450Z,1011.17
2022-11-05T11:17:54.513Z,1011.15
2022-11-05T11:18:54.448Z,1011.16
2022-11-05T11:19:54.424Z,1011.15
2022-11-05T11:20:54.396Z,1011.16
2022-11-05T11:21:54.455Z,1011.16
2022-11-05T11:22:54.364Z,1011.16
2022-11-05T11:23:54.437Z,1011.15
2022-11-05T11:24:54.374Z,1011.13
2022-11-05T11:25:54.379Z,1011.16
2022-11-05T11:26:54.383Z,1011.11
2022-11-05T11:27:54.335Z,1011.14
2022-11-05T11:28:54.313Z,1011.16
2022-11-05T11:29:54.344Z,1011.11
2022-11-05T11:30:54.314Z,1011.10
2022-11-05T11:31:54.292Z,1011.10
2022-11-05T11:32:54.265Z,1011.11
2022-11-05T11:33:54.254Z,1011.12
2022-11-05T11:34:54.247Z,1011.10
2022-11-05T11:35:54.350Z,1011.15
2022-11-05T11:36:54.216Z,1011.11
2022-11-05T11:37:54.255Z,1011.20
2022-11-05T11:38:54.224Z,1011.15
2022-11-05T11:39:54.245Z,1011.20
2022-11-05T11:40:54.213Z,1011.19
2022-11-05T11:41:54.174Z,1011.15
2022-11-05T11:42:54.185Z,1011.17
2022-11-05T11:43:54.164Z,1011.16
2022-11-05T11:44:54.218Z,1011.20
2022-11-05T11:45:54.145Z,1011.15
2022-11-05T11:46:54.161Z,1011.20
2022-11-05T11:47:54.141Z,1011.20
2022-11-05T11:48:54.143Z,1011.20
2022-11-05T11:49:54.126Z,1011.23
2022-11-05T11:50:54.082Z,1011.19
2022-11-05T11:51:54.084Z,1011.20
2022-11-05T11:52:54.100Z,1011.19
2022-11-05T11:53:54.083Z,1011.17
2022-11-05T11:54:54.042Z,1011.18
2022-11-05T11:55:54.053Z,1011.17
2022-11-05T11:56:54.042Z,1011.16
2022-11-05T11:57:54.002Z,1011.11
2022-11-05T11:58:53.997Z,1011.16
2022-11-05T12:00:08.316Z,1011.12
2022-11-05T12:00:54.965Z,1011.10
2022-11-05T12:01:54.174Z,1011.12
2022-11-05T12:02:58.813Z,1011.13
2022-11-05T12:03:54.933Z,1011.14
2022-11-05T12:04:53.933Z,1011.14
2022-11-05T12:05:53.913Z,1011.10
2022-11-05T12:06:53.932Z,1011.06